CHICAGO AURORA MUNICIPAL, IL, United States (KARR) 41-46N 088-28W 215M
Wind: from the NNW (330 degrees) at 9 MPH (8 KT):0
Visibility: 5 mile(s):0
Sky conditions: clear
Weather: mist
Temperature: 24.1 F (-4.4 C)
Windchill: 14 F (-10 C):1
Dew Point: 19.9 F (-6.7 C)
Relative Humidity: 83%
Pressure (altimeter): 30.31 in. Hg (1026 hPa)
Pressure tendency: 0.01 inches (0.2 hPa) lower than three hours ago
ob: KARR 092352Z 33008KT 5SM BR CLR M04/M07 A3031 RMK AO2 SLP277 T10441067 10000 21050 55002
Raw METAR:KARR 092352Z 33008KT 5SM BR CLR M04/M07 A3031 RMK AO2 SLP277 T10441067 10000 21050 55002
cycle: 0
Back to top

CHICAGO/WEST CH DUPAGE, IL, United States (KDPA) 41-54N 88-15W 230M
Wind: from the NNW (330 degrees) at 6 MPH (5 KT):0
Visibility: 4 mile(s):0
Sky conditions: clear
Weather: haze
Temperature: 23.0 F (-5.0 C)
Windchill: 15 F (-9 C):1
Dew Point: 17.1 F (-8.3 C)
Relative Humidity: 77%
Pressure (altimeter): 30.31 in. Hg (1026 hPa)
Pressure tendency: 0.00 inches (0.1 hPa) lower than three hours ago
ob: KDPA 092352Z 33005KT 4SM HZ CLR M05/M08 A3031 RMK AO2 SLP276 T10501083 10006 21050 55001
Raw METAR:KDPA 092352Z 33005KT 4SM HZ CLR M05/M08 A3031 RMK AO2 SLP276 T10501083 10006 21050 55001
cycle: 0
Back to top

De Kalb, De Kalb Taylor Municipal Airport, IL, United States (KDKB) 41-55-55N 088-42-30W
Wind: from the N (360 degrees) at 7 MPH (6 KT):0
Visibility: 5 mile(s):0
Sky conditions: clear
Weather: mist
Temperature: 21.0 F (-6.1 C)
Windchill: 12 F (-11 C):1
Dew Point: 19.8 F (-6.8 C)
Relative Humidity: 94%
Pressure (altimeter): 30.33 in. Hg (1027 hPa)
ob: KDKB 100015Z AUTO 36006KT 5SM BR CLR M06/M07 A3033 RMK AO2 T10611068
Raw METAR:KDKB 100015Z AUTO 36006KT 5SM BR CLR M06/M07 A3033 RMK AO2 T10611068
cycle: 0
Back to top

Joliet, Joliet Regional Airport, IL, United States (KJOT) 41-31-05N 088-10-31W
Wind: Calm:0
Visibility: 10 mile(s):0
Sky conditions: clear
Temperature: 28.8 F (-1.8 C)
Dew Point: 21.4 F (-5.9 C)
Relative Humidity: 73%
Pressure (altimeter): 30.32 in. Hg (1026 hPa)
ob: KJOT 100015Z AUTO 00000KT 10SM CLR M02/M06 A3032 RMK AO2 T10181059
Raw METAR:KJOT 100015Z AUTO 00000KT 10SM CLR M02/M06 A3032 RMK AO2 T10181059
cycle: 0
Back to top

Kankakee, Greater Kankakee Airport, IL, United States (KIKK) 41-04-17N 087-50-47W
Wind: Calm:0
Visibility: 10 mile(s):0
Sky conditions: clear
Temperature: 27.1 F (-2.7 C)
Dew Point: 21.2 F (-6.0 C)
Relative Humidity: 77%
Pressure (altimeter): 30.32 in. Hg (1026 hPa)
ob: KIKK 100015Z AUTO 00000KT 10SM CLR M03/M06 A3032 RMK AO2 T10271060
Raw METAR:KIKK 100015Z AUTO 00000KT 10SM CLR M03/M06 A3032 RMK AO2 T10271060
cycle: 0
Back to top

Morris, Morris Municipal-James R Washburn Field Airport, IL, United States (KC09) 41-25-31N 088-25-07W
Wind: from the NNW (330 degrees) at 3 MPH (3 KT):0
Visibility: 7 mile(s):0
Sky conditions: clear
Temperature: 23.5 F (-4.7 C)
Dew Point: 20.8 F (-6.2 C)
Relative Humidity: 89%
Pressure (altimeter): 30.31 in. Hg (1026 hPa)
ob: KC09 100015Z AUTO 33003KT 7SM CLR M05/M06 A3031 RMK AO2 T10471062
Raw METAR:KC09 100015Z AUTO 33003KT 7SM CLR M05/M06 A3031 RMK AO2 T10471062
cycle: 0
Back to top

Peru, Illinois Valley Regional-Walter A Duncan Field Airport, IL, United States (KVYS) 41-21-07N 089-09-11W
Wind: from the N (350 degrees) at 5 MPH (4 KT):0
Visibility: 10 mile(s):0
Sky conditions: clear
Temperature: 28.4 F (-2.0 C)
Windchill: 23 F (-5 C):1
Dew Point: 22.8 F (-5.1 C)
Relative Humidity: 79%
Pressure (altimeter): 30.33 in. Hg (1027 hPa)
ob: KVYS 100015Z AUTO 35004KT 10SM CLR M02/M05 A3033 RMK AO2 T10201051
Raw METAR:KVYS 100015Z AUTO 35004KT 10SM CLR M02/M05 A3033 RMK AO2 T10201051
cycle: 0
Back to top

Rochelle, Rochelle Municipal-Koritz Field Airport, IL, United States (KRPJ) 41-53-35N 089-04-42W
Wind: from the N (360 degrees) at 6 MPH (5 KT):0
Visibility: 5 mile(s):0
Sky conditions: clear
Weather: mist
Temperature: 22.5 F (-5.3 C)
Windchill: 15 F (-9 C):1
Dew Point: 21.0 F (-6.1 C)
Relative Humidity: 94%
Pressure (altimeter): 30.33 in. Hg (1027 hPa)
ob: KRPJ 100015Z AUTO 36005KT 5SM BR CLR M05/M06 A3033 RMK AO2 T10531061
Raw METAR:KRPJ 100015Z AUTO 36005KT 5SM BR CLR M05/M06 A3033 RMK AO2 T10531061
cycle: 0
Back to top